Williamsport, Kentucky
Current Conditions -  °F | °C
As of 2:55 AM on Saturday 25 Oct 2014 (Local Time) from KSJS Reporting Station
Clear Clear  
Wind Chill: 44°   Ceiling: Unl
Heat Index: 44°   Visibility: 10mi
Dew Point: 42°   Wind: 3mph
Humidity: 92%   Direction: 190°S
Pressure: 30.07"   Gusts: NA
Location:  37.82°N, 82.73°W
Report Text: KSJS 250655Z AUTO 19003KT 10SM CLR 07/06 A3007 RMK AO2 T00680056
Loading
Personal Weather Stations






























Interactive Weather Map
Tropical Storm Tracking
New forecast layout! Learn more

10-Day Weather Forecast

Advertisements
Track Severe Weather on mobile